Time;durP1;ratioP1;P1;durP2;ratioP2;P2;SDS_P1;SDS_P2;PMS_P1;PMS_P2;Temp;Humidity;BMP_temperature;BMP_pressure;BME280_temperature;BME280_humidity;BME280_pressure;Samples;Min_cycle;Max_cycle;Signal;HPM_P1;HPM_P2
2023/05/31 00:00:52;;;;;;;6.78;5.43;;;;;;;12.90;100.00;102478.25;5283794;28;20111;-77
2023/05/31 00:03:23;;;;;;;7.78;5.60;;;;;;;12.90;100.00;102477.41;5283086;28;20125;-76
2023/05/31 00:05:54;;;;;;;8.10;5.72;;;;;;;12.92;100.00;102483.50;5287507;28;20520;-77
2023/05/31 00:08:26;;;;;;;7.10;5.80;;;;;;;12.87;100.00;102470.50;5286209;28;20382;-76
2023/05/31 00:10:57;;;;;;;6.95;6.25;;;;;;;12.89;100.00;102486.44;5286841;28;20016;-76
2023/05/31 00:13:28;;;;;;;6.47;5.95;;;;;;;12.85;100.00;102486.66;5281693;28;20028;-76
2023/05/31 00:16:00;;;;;;;6.55;5.80;;;;;;;12.81;100.00;102485.19;5284007;28;20486;-76
2023/05/31 00:18:31;;;;;;;6.28;5.72;;;;;;;12.78;100.00;102481.88;5286072;28;20036;-76
2023/05/31 00:21:03;;;;;;;6.72;6.03;;;;;;;12.71;100.00;102486.88;5283330;28;20028;-76
2023/05/31 00:23:34;;;;;;;7.60;5.93;;;;;;;12.69;100.00;102475.41;5281430;28;20028;-76
2023/05/31 00:26:05;;;;;;;6.55;5.88;;;;;;;12.77;100.00;102473.00;5283723;28;20572;-76
2023/05/31 00:28:36;;;;;;;7.32;6.60;;;;;;;12.73;100.00;102481.38;5283044;28;20558;-76
2023/05/31 00:31:08;;;;;;;7.13;6.20;;;;;;;12.68;100.00;102481.75;5287168;28;20721;-76
2023/05/31 00:33:39;;;;;;;6.43;5.82;;;;;;;12.70;100.00;102471.78;5283940;28;20024;-76
2023/05/31 00:36:10;;;;;;;6.18;5.57;;;;;;;12.65;100.00;102476.63;5288530;28;20027;-76
2023/05/31 00:38:42;;;;;;;7.53;6.57;;;;;;;12.65;100.00;102481.97;5285599;28;20089;-76
2023/05/31 00:41:13;;;;;;;8.38;6.25;;;;;;;12.62;100.00;102475.03;5285470;28;20032;-76
2023/05/31 00:43:45;;;;;;;7.32;5.97;;;;;;;12.60;100.00;102476.09;5283238;28;20428;-76
2023/05/31 00:46:28;;;;;;;8.00;5.57;;;;;;;12.65;100.00;102481.97;5292758;28;20016;-76
2023/05/31 00:49:00;;;;;;;6.97;5.50;;;;;;;12.53;100.00;102488.25;5282590;28;20020;-76
2023/05/31 00:51:32;;;;;;;6.18;5.57;;;;;;;12.47;100.00;102484.22;5284829;28;20387;-77
2023/05/31 00:54:05;;;;;;;10.82;9.68;;;;;;;12.46;100.00;102487.84;5282721;28;20078;-76
2023/05/31 00:56:36;;;;;;;7.57;6.72;;;;;;;12.40;100.00;102481.13;5289386;28;20049;-76
2023/05/31 00:59:08;;;;;;;7.43;5.75;;;;;;;12.46;100.00;102480.69;5281065;28;20024;-76
2023/05/31 01:01:40;;;;;;;6.75;5.82;;;;;;;12.47;100.00;102478.88;5282340;28;20111;-77
2023/05/31 01:04:12;;;;;;;8.20;5.75;;;;;;;12.41;100.00;102490.00;5284209;28;20381;-77
2023/05/31 01:06:44;;;;;;;7.10;6.40;;;;;;;12.39;100.00;102495.47;5284544;28;20034;-77
2023/05/31 01:09:16;;;;;;;8.25;6.28;;;;;;;12.36;100.00;102493.06;5283422;28;20028;-77
2023/05/31 01:11:58;;;;;;;7.70;6.20;;;;;;;12.39;100.00;102486.59;5286043;28;20371;-76
2023/05/31 01:15:05;;;;;;;6.65;5.95;;;;;;;12.42;100.00;102502.44;5286816;28;20024;-76
2023/05/31 01:18:09;;;;;;;6.75;6.05;;;;;;;12.35;100.00;102498.50;5257038;28;20451;-76
2023/05/31 01:20:43;;;;;;;7.60;6.35;;;;;;;12.30;100.00;102494.34;5283455;28;20044;-76
2023/05/31 01:23:39;;;;;;;6.60;5.47;;;;;;;12.29;100.00;102498.00;5282785;28;20549;-76
2023/05/31 01:26:17;;;;;;;6.65;5.97;;;;;;;12.25;100.00;102501.00;5279741;28;20032;-76
2023/05/31 01:28:53;;;;;;;8.07;6.38;;;;;;;12.29;100.00;102492.66;5281668;28;20044;-76
2023/05/31 01:31:25;;;;;;;;;;;;;;;12.44;100.00;102489.78;5285499;28;20025;-76
2023/05/31 01:33:57;;;;;;;8.82;6.28;;;;;;;12.27;100.00;102488.34;5290166;28;19919;-77
2023/05/31 01:36:28;;;;;;;7.30;5.97;;;;;;;12.22;100.00;102491.41;5280852;28;20389;-76
2023/05/31 01:39:01;;;;;;;6.93;6.22;;;;;;;12.18;100.00;102492.56;5280929;28;20028;-77
2023/05/31 01:41:38;;;;;;;7.40;6.05;;;;;;;12.26;100.00;102487.50;5289901;28;20032;-77
2023/05/31 01:44:12;;;;;;;7.40;6.70;;;;;;;12.18;100.00;102489.03;5283518;28;20550;-76
2023/05/31 01:46:44;;;;;;;7.45;6.72;;;;;;;12.16;100.00;102482.97;5287996;28;20032;-76
2023/05/31 01:49:16;;;;;;;8.30;6.50;;;;;;;12.21;100.00;102486.16;5284909;28;20082;-76
2023/05/31 01:51:49;;;;;;;6.97;6.07;;;;;;;12.16;100.00;102483.81;5280837;28;20086;-76
2023/05/31 01:54:21;;;;;;;7.40;6.63;;;;;;;12.14;100.00;102488.41;5283554;28;20486;-76
2023/05/31 01:56:53;;;;;;;7.60;6.47;;;;;;;12.09;100.00;102482.56;5284196;28;20043;-75
2023/05/31 01:59:25;;;;;;;8.32;7.15;;;;;;;12.05;100.00;102479.25;5280543;28;20032;-75
2023/05/31 02:01:57;;;;;;;8.90;6.85;;;;;;;12.00;100.00;102476.06;5291714;28;20127;-75
2023/05/31 02:04:28;;;;;;;8.77;6.70;;;;;;;12.07;100.00;102473.78;5282535;28;20032;-75
2023/05/31 02:07:00;;;;;;;6.95;6.25;;;;;;;12.03;100.00;102477.66;5282773;28;20028;-75
2023/05/31 02:09:31;;;;;;;7.53;6.47;;;;;;;12.04;100.00;102471.31;5283110;28;20157;-75
2023/05/31 02:12:03;;;;;;;8.57;7.13;;;;;;;12.02;100.00;102468.75;5281480;28;20039;-75
2023/05/31 02:14:34;;;;;;;8.90;6.70;;;;;;;11.99;100.00;102473.47;5285656;28;20052;-76
2023/05/31 02:17:05;;;;;;;9.07;7.22;;;;;;;12.02;100.00;102466.09;5285313;28;20039;-75
2023/05/31 02:19:37;;;;;;;8.13;6.60;;;;;;;11.95;100.00;102464.84;5286791;28;20394;-75
2023/05/31 02:22:08;;;;;;;10.35;7.00;;;;;;;11.98;100.00;102464.63;5283743;28;20109;-75
2023/05/31 02:24:40;;;;;;;8.63;6.78;;;;;;;11.98;100.00;102466.44;5282138;28;20032;-75
2023/05/31 02:27:12;;;;;;;8.18;6.85;;;;;;;11.97;100.00;102462.06;5284675;28;20023;-76
2023/05/31 02:29:47;;;;;;;7.10;6.40;;;;;;;11.94;100.00;102470.28;5282580;28;20429;-75
2023/05/31 02:32:18;;;;;;;10.10;7.47;;;;;;;11.91;100.00;102461.53;5285492;28;20039;-75
2023/05/31 02:34:49;;;;;;;8.18;7.25;;;;;;;11.97;100.00;102475.41;5300998;28;20034;-75
2023/05/31 02:37:21;;;;;;;7.80;7.00;;;;;;;11.89;100.00;102474.13;5280813;28;20041;-75
2023/05/31 02:39:53;;;;;;;7.88;7.05;;;;;;;11.83;100.00;102469.25;5278728;28;20036;-75
2023/05/31 02:42:24;;;;;;;7.95;7.15;;;;;;;11.81;100.00;102468.47;5286090;28;20051;-75
2023/05/31 02:44:55;;;;;;;9.40;7.25;;;;;;;11.86;100.00;102466.31;5281909;28;20043;-75
2023/05/31 02:47:27;;;;;;;8.45;7.18;;;;;;;11.87;100.00;102468.03;5279181;28;20039;-75
2023/05/31 02:49:58;;;;;;;9.30;7.13;;;;;;;11.84;100.00;102470.94;5289985;28;20051;-75
2023/05/31 02:52:30;;;;;;;9.77;7.57;;;;;;;11.75;100.00;102476.94;5290177;28;20030;-75
2023/05/31 02:55:02;;;;;;;9.30;6.88;;;;;;;11.80;100.00;102468.56;5279091;28;20367;-75
2023/05/31 02:57:33;;;;;;;8.65;7.15;;;;;;;11.71;100.00;102467.41;5280248;28;20032;-75
2023/05/31 03:00:11;;;;;;;7.85;7.05;;;;;;;11.82;100.00;102472.03;5279388;28;20508;-75
2023/05/31 03:02:42;;;;;;;8.60;7.47;;;;;;;11.70;100.00;102468.41;5283032;28;20074;-75
2023/05/31 03:05:13;;;;;;;9.90;7.55;;;;;;;11.72;100.00;102472.66;5279840;28;20424;-75
2023/05/31 03:07:44;;;;;;;9.68;7.63;;;;;;;11.69;100.00;102470.25;5278846;28;20405;-76
2023/05/31 03:10:16;;;;;;;8.60;7.70;;;;;;;11.67;100.00;102471.28;5279288;28;20034;-75
2023/05/31 03:12:47;;;;;;;9.13;7.50;;;;;;;11.57;100.00;102468.44;5279847;28;20039;-75
2023/05/31 03:15:19;;;;;;;9.00;8.10;;;;;;;11.63;100.00;102470.66;5279598;28;20032;-75
2023/05/31 03:17:50;;;;;;;10.35;7.93;;;;;;;11.65;100.00;102468.72;5292197;28;20024;-73
2023/05/31 03:20:22;;;;;;;8.90;7.57;;;;;;;11.66;100.00;102466.94;5279557;28;20038;-76
2023/05/31 03:22:53;;;;;;;11.27;7.93;;;;;;;11.54;100.00;102471.31;5283957;28;20158;-76
2023/05/31 03:25:25;;;;;;;11.45;8.13;;;;;;;11.52;100.00;102462.56;5279412;28;20052;-76
2023/05/31 03:27:57;;;;;;;11.23;7.97;;;;;;;11.51;100.00;102471.53;5285109;28;20020;-75
2023/05/31 03:30:28;;;;;;;12.00;8.55;;;;;;;11.46;100.00;102465.66;5281370;28;20505;-75
2023/05/31 03:33:00;;;;;;;10.43;7.88;;;;;;;11.51;100.00;102463.50;5286072;28;20024;-75
2023/05/31 03:35:31;;;;;;;9.20;8.23;;;;;;;11.50;100.00;102467.13;5278675;28;20028;-75
2023/05/31 03:38:02;;;;;;;10.02;8.30;;;;;;;11.47;100.00;102468.22;5277944;28;20043;-75
2023/05/31 03:40:34;;;;;;;11.52;8.20;;;;;;;11.43;100.00;102464.06;5283150;28;20425;-69
2023/05/31 03:43:05;;;;;;;11.30;8.80;;;;;;;11.46;100.00;102463.84;5281602;28;20056;-70
2023/05/31 03:45:36;;;;;;;12.73;9.63;;;;;;;11.50;100.00;102464.47;5282044;28;20497;-71
2023/05/31 03:48:07;;;;;;;15.30;8.30;;;;;;;11.48;100.00;102467.28;5280468;28;20584;-70
2023/05/31 03:50:40;;;;;;;12.73;8.80;;;;;;;11.46;100.00;102468.31;5276104;28;20474;-68
2023/05/31 03:53:11;;;;;;;9.35;8.30;;;;;;;11.48;100.00;102466.41;5278376;28;20068;-71
2023/05/31 03:55:43;;;;;;;11.50;8.93;;;;;;;11.46;100.00;102471.84;5280137;28;20055;-71
2023/05/31 03:58:14;;;;;;;9.23;8.32;;;;;;;11.42;100.00;102469.53;5279364;28;20020;-70
2023/05/31 04:00:46;;;;;;;12.63;8.40;;;;;;;11.44;100.00;102472.94;5286749;28;20058;-70
2023/05/31 04:03:17;;;;;;;10.60;8.68;;;;;;;11.48;100.00;102469.06;5288165;28;20039;-71
2023/05/31 04:05:49;;;;;;;11.35;8.90;;;;;;;11.46;100.00;102471.00;5277749;28;20486;-71
2023/05/31 04:08:20;;;;;;;10.35;8.88;;;;;;;11.46;100.00;102465.66;5281648;28;20036;-71
2023/05/31 04:10:51;;;;;;;10.88;8.65;;;;;;;11.51;100.00;102466.19;5278334;28;20048;-71
2023/05/31 04:13:22;;;;;;;11.05;9.00;;;;;;;11.52;100.00;102465.25;5283972;28;20070;-72
2023/05/31 04:15:54;;;;;;;11.25;8.75;;;;;;;11.53;100.00;102467.81;5279052;28;20016;-71
2023/05/31 04:18:25;;;;;;;14.98;9.70;;;;;;;11.60;100.00;102468.19;5285434;28;20039;-71
2023/05/31 04:20:56;;;;;;;10.98;8.93;;;;;;;11.56;100.00;102464.03;5281921;28;20123;-71
2023/05/31 04:23:28;;;;;;;12.55;9.23;;;;;;;11.57;100.00;102462.22;5282384;28;20067;-71
2023/05/31 04:26:00;;;;;;;11.20;9.75;;;;;;;11.58;100.00;102471.97;5281552;28;20028;-70
2023/05/31 04:28:31;;;;;;;11.85;9.93;;;;;;;11.63;100.00;102470.66;5283198;28;20367;-70
2023/05/31 04:31:03;;;;;;;14.27;10.48;;;;;;;11.68;100.00;102468.50;5278997;28;20032;-70
2023/05/31 04:33:35;;;;;;;11.05;8.80;;;;;;;11.68;100.00;102471.19;5278730;28;20055;-70
2023/05/31 04:36:08;;;;;;;12.77;9.48;;;;;;;11.72;100.00;102471.81;5283350;28;20024;-70
2023/05/31 04:38:39;;;;;;;13.63;10.20;;;;;;;11.68;100.00;102463.16;5287672;28;20492;-71
2023/05/31 04:41:10;;;;;;;12.48;9.95;;;;;;;11.73;100.00;102474.38;5280318;28;20221;-71
2023/05/31 04:43:42;;;;;;;13.10;9.95;;;;;;;11.79;100.00;102472.25;5281652;28;20024;-71
2023/05/31 04:46:13;;;;;;;15.50;11.15;;;;;;;11.86;100.00;102473.50;5277818;28;20442;-71
2023/05/31 04:48:49;;;;;;;15.35;10.82;;;;;;;11.86;100.00;102474.34;5280768;28;20024;-70
2023/05/31 04:51:21;;;;;;;16.05;11.13;;;;;;;11.90;100.00;102474.97;5279934;28;20032;-70
2023/05/31 04:53:52;;;;;;;13.82;11.30;;;;;;;11.91;100.00;102474.91;5281625;28;20400;-70
2023/05/31 04:56:24;;;;;;;13.38;10.95;;;;;;;11.94;100.00;102468.50;5284767;28;20103;-70
2023/05/31 04:58:56;;;;;;;13.45;11.25;;;;;;;12.00;100.00;102472.53;5281464;28;20077;-70
2023/05/31 05:01:28;;;;;;;16.27;11.25;;;;;;;12.05;100.00;102470.38;5288514;28;20037;-71
2023/05/31 05:03:59;;;;;;;12.80;11.35;;;;;;;12.04;100.00;102474.00;5289637;28;20370;-70
2023/05/31 05:06:31;;;;;;;15.70;11.73;;;;;;;12.11;100.00;102467.25;5291040;28;20039;-71
2023/05/31 05:09:02;;;;;;;14.50;11.73;;;;;;;12.10;100.00;102465.53;5280438;28;20081;-70
2023/05/31 05:11:34;;;;;;;15.50;11.55;;;;;;;12.20;100.00;102468.38;5280352;28;20028;-70
2023/05/31 05:14:05;;;;;;;16.58;11.77;;;;;;;12.24;100.00;102473.41;5287926;28;20423;-71
2023/05/31 05:16:36;;;;;;;14.80;12.55;;;;;;;12.32;100.00;102472.81;5288277;28;20069;-71
2023/05/31 05:19:08;;;;;;;14.60;11.80;;;;;;;12.36;100.00;102476.13;5294153;28;20028;-70
2023/05/31 05:21:39;;;;;;;15.80;13.13;;;;;;;12.41;100.00;102476.63;5290532;28;20028;-70
2023/05/31 05:24:10;;;;;;;19.98;16.25;;;;;;;12.44;100.00;102476.41;5282621;28;20032;-70
2023/05/31 05:26:43;;;;;;;25.02;19.42;;;;;;;12.44;100.00;102482.59;5280455;28;20094;-71
2023/05/31 05:29:14;;;;;;;16.98;14.00;;;;;;;12.47;100.00;102477.03;5283940;28;20106;-71
2023/05/31 05:31:48;;;;;;;21.23;14.95;;;;;;;12.58;100.00;102484.25;5283739;28;20416;-70
2023/05/31 05:34:20;;;;;;;16.55;14.13;;;;;;;12.66;100.00;102479.19;5281688;28;20141;-71
2023/05/31 05:36:54;;;;;;;17.27;14.32;;;;;;;12.72;100.00;102475.19;5290844;28;20024;-71
2023/05/31 05:39:25;;;;;;;18.90;14.07;;;;;;;12.76;100.00;102476.66;5283708;28;20444;-71
2023/05/31 05:41:56;;;;;;;22.00;14.43;;;;;;;12.79;100.00;102479.09;5281080;28;20086;-71
2023/05/31 05:44:28;;;;;;;21.75;14.02;;;;;;;12.86;100.00;102482.16;5285759;28;20032;-70
2023/05/31 05:46:59;;;;;;;17.40;13.95;;;;;;;12.91;100.00;102479.97;5281504;28;20409;-70
2023/05/31 05:49:30;;;;;;;19.83;13.63;;;;;;;12.94;100.00;102477.06;5283794;28;20043;-70
2023/05/31 05:52:02;;;;;;;20.42;13.65;;;;;;;13.04;100.00;102483.44;5287822;28;20027;-70
2023/05/31 05:54:33;;;;;;;17.98;13.93;;;;;;;13.10;100.00;102474.06;5289370;28;20031;-70
2023/05/31 05:57:06;;;;;;;21.42;14.05;;;;;;;13.14;100.00;102485.41;5280563;28;20024;-70
2023/05/31 05:59:37;;;;;;;14.50;12.65;;;;;;;13.22;100.00;102478.47;5280800;28;20032;-69
2023/05/31 06:02:09;;;;;;;18.23;14.68;;;;;;;13.29;100.00;102484.19;5285772;28;20040;-69
2023/05/31 06:04:40;;;;;;;17.33;13.63;;;;;;;13.39;100.00;102492.38;5282392;28;20062;-70
2023/05/31 06:07:11;;;;;;;18.55;15.35;;;;;;;13.43;100.00;102489.34;5285386;28;20036;-70
2023/05/31 06:09:43;;;;;;;19.80;15.00;;;;;;;13.63;100.00;102478.88;5283195;28;21506;-70
2023/05/31 06:12:14;;;;;;;20.05;14.55;;;;;;;13.73;100.00;102489.72;5285939;28;20035;-69
2023/05/31 06:14:46;;;;;;;17.70;15.02;;;;;;;13.90;100.00;102472.25;5280909;28;20111;-70
2023/05/31 06:17:17;;;;;;;19.38;14.27;;;;;;;14.13;100.00;102484.66;5279164;28;20020;-70
2023/05/31 06:19:48;;;;;;;18.75;13.20;;;;;;;14.35;100.00;102489.09;5277787;28;20032;-70
2023/05/31 06:22:19;;;;;;;17.23;13.15;;;;;;;14.61;100.00;102480.75;5282388;28;20046;-70
2023/05/31 06:24:51;;;;;;;17.67;12.38;;;;;;;14.78;100.00;102490.06;5279554;28;20056;-70
2023/05/31 06:27:22;;;;;;;15.13;12.52;;;;;;;15.03;100.00;102485.28;5283213;28;20032;-70
2023/05/31 06:29:57;;;;;;;16.10;12.63;;;;;;;15.25;100.00;102492.31;5277690;28;20039;-70
2023/05/31 06:32:30;;;;;;;16.20;12.67;;;;;;;15.50;100.00;102488.38;5287480;28;20043;-70
2023/05/31 06:35:01;;;;;;;13.77;12.07;;;;;;;15.69;100.00;102495.66;5285332;28;20020;-70
2023/05/31 06:37:33;;;;;;;14.50;11.60;;;;;;;16.03;100.00;102490.81;5289135;28;20093;-70
2023/05/31 06:40:06;;;;;;;15.55;12.45;;;;;;;16.22;100.00;102499.94;5285612;28;20032;-70
2023/05/31 06:42:38;;;;;;;15.95;12.45;;;;;;;16.43;100.00;102499.81;5284640;28;20055;-70
2023/05/31 06:45:09;;;;;;;17.55;12.40;;;;;;;16.73;100.00;102497.97;5281016;28;20496;-70
2023/05/31 06:47:40;;;;;;;18.50;12.27;;;;;;;16.94;100.00;102493.31;5279981;28;21058;-70
2023/05/31 06:50:15;;;;;;;16.10;11.52;;;;;;;17.05;100.00;102497.69;5285656;28;20024;-70
2023/05/31 06:52:46;;;;;;;16.00;12.40;;;;;;;17.42;100.00;102499.56;5282587;28;20071;-70
2023/05/31 06:55:17;;;;;;;16.33;12.00;;;;;;;17.51;100.00;102497.81;5286467;28;20036;-71
2023/05/31 06:57:49;;;;;;;15.20;11.45;;;;;;;17.70;100.00;102488.81;5283296;28;20033;-70
2023/05/31 07:00:20;;;;;;;14.20;11.50;;;;;;;17.92;100.00;102493.00;5287491;28;20052;-70
2023/05/31 07:02:51;;;;;;;13.88;11.07;;;;;;;18.22;100.00;102497.19;5287679;28;20031;-70
2023/05/31 07:05:23;;;;;;;13.60;10.45;;;;;;;18.49;100.00;102498.13;5288386;28;20107;-70
2023/05/31 07:07:54;;;;;;;13.40;10.68;;;;;;;18.65;100.00;102502.81;5285868;28;20024;-70
2023/05/31 07:10:27;;;;;;;17.30;11.50;;;;;;;18.64;100.00;102488.47;5279926;28;20046;-70
2023/05/31 07:12:58;;;;;;;14.13;11.05;;;;;;;18.88;100.00;102501.38;5278402;28;20039;-70
2023/05/31 07:15:29;;;;;;;18.77;10.88;;;;;;;18.99;100.00;102491.31;5284311;28;20028;-70
2023/05/31 07:18:01;;;;;;;12.80;10.60;;;;;;;19.20;100.00;102482.84;5279227;28;20545;-70
2023/05/31 07:20:32;;;;;;;14.00;11.02;;;;;;;19.38;100.00;102482.75;5280253;28;20043;-72
2023/05/31 07:23:03;;;;;;;13.35;10.10;;;;;;;19.59;100.00;102483.19;5278827;28;20058;-70
2023/05/31 07:25:34;;;;;;;15.30;11.90;;;;;;;19.60;100.00;102484.03;5279747;28;20386;-70
2023/05/31 07:28:06;;;;;;;14.75;10.75;;;;;;;19.91;100.00;102478.94;5276946;28;20493;-71
2023/05/31 07:30:37;;;;;;;12.52;9.82;;;;;;;20.11;100.00;102475.94;5279914;28;20504;-71
2023/05/31 07:33:08;;;;;;;19.48;11.15;;;;;;;20.24;100.00;102472.78;5289490;28;20070;-70
2023/05/31 07:35:41;;;;;;;12.95;10.88;;;;;;;20.34;100.00;102474.31;5282609;28;20027;-70
2023/05/31 07:38:12;;;;;;;15.68;10.93;;;;;;;20.41;100.00;102471.78;5281384;28;20032;-70
2023/05/31 07:40:44;;;;;;;16.08;11.07;;;;;;;20.59;100.00;102474.31;5279519;28;20873;-71
2023/05/31 07:43:15;;;;;;;16.48;9.85;;;;;;;20.78;100.00;102474.00;5280770;28;20110;-71
2023/05/31 07:45:48;;;;;;;15.13;9.93;;;;;;;21.17;100.00;102466.16;5288956;28;20024;-70
2023/05/31 07:48:20;;;;;;;14.43;10.68;;;;;;;21.18;100.00;102467.84;5283275;28;20039;-70
2023/05/31 07:50:51;;;;;;;13.82;10.23;;;;;;;21.45;100.00;102469.28;5278114;28;20028;-70
2023/05/31 07:53:22;;;;;;;12.25;9.68;;;;;;;21.51;100.00;102472.19;5285939;28;20594;-71
2023/05/31 07:55:54;;;;;;;13.70;10.20;;;;;;;21.60;100.00;102472.13;5278172;28;20082;-70
2023/05/31 07:58:25;;;;;;;12.27;9.50;;;;;;;21.86;100.00;102467.28;5282755;28;20032;-71
2023/05/31 08:00:56;;;;;;;20.08;10.35;;;;;;;21.87;100.00;102457.25;5285940;28;20069;-70
2023/05/31 08:03:28;;;;;;;13.73;10.02;;;;;;;21.96;100.00;102458.88;5277179;28;20033;-71
2023/05/31 08:05:59;;;;;;;14.75;10.02;;;;;;;22.32;100.00;102461.06;5274633;28;20421;-70
2023/05/31 08:08:32;;;;;;;14.18;9.68;;;;;;;22.34;100.00;102463.59;5282600;28;20032;-71
2023/05/31 08:11:03;;;;;;;14.50;9.73;;;;;;;22.49;100.00;102461.75;5280606;28;20115;-70
2023/05/31 08:13:35;;;;;;;13.73;9.50;;;;;;;22.59;100.00;102442.50;5280961;28;20500;-71
2023/05/31 08:16:06;;;;;;;12.82;9.40;;;;;;;22.91;100.00;102457.66;5278811;28;20055;-70
2023/05/31 08:18:37;;;;;;;14.63;9.70;;;;;;;23.14;100.00;102454.91;5276336;28;20028;-70
2023/05/31 08:21:09;;;;;;;13.13;8.98;;;;;;;23.17;100.00;102449.06;5278943;28;20028;-70
2023/05/31 08:23:41;;;;;;;12.95;9.27;;;;;;;23.36;100.00;102444.09;5279775;28;21254;-71
2023/05/31 08:26:12;;;;;;;13.93;8.50;;;;;;;23.55;100.00;102445.41;5283245;28;20417;-71
2023/05/31 08:28:43;;;;;;;10.73;8.50;;;;;;;24.10;100.00;102454.03;5288234;28;20436;-71
2023/05/31 08:31:15;;;;;;;14.30;9.35;;;;;;;24.31;100.00;102451.28;5287650;28;20098;-70
2023/05/31 08:33:56;;;;;;;12.45;8.63;;;;;;;24.30;100.00;102449.63;5291557;28;20028;-71
2023/05/31 08:36:28;;;;;;;14.23;9.15;;;;;;;24.59;100.00;102446.97;5286827;28;20043;-70
2023/05/31 08:38:59;;;;;;;11.38;8.02;;;;;;;24.82;100.00;102443.97;5287510;28;20028;-71
2023/05/31 08:41:42;;;;;;;10.45;8.25;;;;;;;25.16;100.00;102436.84;5285488;28;20489;-70
2023/05/31 08:44:14;;;;;;;12.18;9.18;;;;;;;25.08;100.00;102444.16;5282254;28;20028;-71
2023/05/31 08:46:47;;;;;;;16.38;9.73;;;;;;;25.13;100.00;102443.56;5284048;28;20342;-71
2023/05/31 08:49:19;;;;;;;11.85;8.70;;;;;;;25.18;100.00;102427.41;5282201;28;20082;-70
2023/05/31 08:51:50;;;;;;;17.50;8.48;;;;;;;25.40;100.00;102444.59;5283907;28;20024;-71
2023/05/31 08:54:24;;;;;;;15.50;8.98;;;;;;;25.60;100.00;102438.38;5281218;28;20462;-70
2023/05/31 08:56:55;;;;;;;13.95;9.40;;;;;;;25.63;100.00;102437.94;5287911;28;20281;-70
2023/05/31 08:59:26;;;;;;;12.80;8.85;;;;;;;26.00;100.00;102430.31;5287514;28;20457;-71
2023/05/31 09:02:00;;;;;;;12.20;8.40;;;;;;;25.86;100.00;102426.69;5281061;28;20025;-71
2023/05/31 09:04:32;;;;;;;11.77;7.32;;;;;;;26.12;100.00;102428.66;5286720;28;20063;-71
2023/05/31 09:07:04;;;;;;;12.65;8.13;;;;;;;26.22;100.00;102429.06;5279745;28;20084;-72
2023/05/31 09:09:35;;;;;;;12.10;7.32;;;;;;;26.59;100.00;102431.41;5285272;28;20484;-71
2023/05/31 09:12:07;;;;;;;13.10;7.47;;;;;;;26.71;100.00;102435.22;5281013;28;20474;-71
2023/05/31 09:14:38;;;;;;;12.45;7.72;;;;;;;26.88;100.00;102426.56;5283400;28;20099;-71
2023/05/31 09:17:10;;;;;;;13.25;7.32;;;;;;;26.99;100.00;102425.91;5282119;28;20017;-71
2023/05/31 09:19:49;;;;;;;12.70;7.50;;;;;;;27.28;100.00;102421.00;5284278;28;20055;-71
2023/05/31 09:22:23;;;;;;;12.05;8.05;;;;;;;27.47;100.00;102419.25;5281776;28;20493;-71
2023/05/31 09:24:56;;;;;;;12.45;8.15;;;;;;;27.31;99.93;102417.84;5280433;28;20032;-71
2023/05/31 09:27:35;;;;;;;12.32;7.70;;;;;;;27.20;100.00;102418.47;5285039;28;20451;-72
2023/05/31 09:30:09;;;;;;;13.85;10.25;;;;;;;27.53;100.00;102413.72;5280265;28;20104;-71
2023/05/31 09:32:52;;;;;;;10.35;8.10;;;;;;;27.95;98.32;102415.22;5280468;28;20056;-71
2023/05/31 09:35:27;;;;;;;11.18;6.93;;;;;;;27.92;94.61;102411.03;5282300;28;20025;-72
2023/05/31 09:38:06;;;;;;;15.25;6.50;;;;;;;28.11;94.03;102409.19;5283111;28;20024;-71
2023/05/31 09:40:37;;;;;;;10.88;6.15;;;;;;;27.96;88.42;102401.28;5279587;28;20063;-71
2023/05/31 09:43:08;;;;;;;11.67;6.13;;;;;;;28.01;90.10;102392.41;5282129;28;20123;-72
2023/05/31 09:45:46;;;;;;;11.27;6.30;;;;;;;28.45;91.90;102399.66;5281067;28;20302;-71
2023/05/31 09:48:18;;;;;;;9.48;5.82;;;;;;;28.68;88.51;102384.44;5282460;28;20775;-72
2023/05/31 09:50:50;;;;;;;10.27;6.07;;;;;;;28.90;84.48;102386.78;5281501;28;20032;-71
2023/05/31 09:53:23;;;;;;;10.57;5.80;;;;;;;28.94;85.09;102382.50;5280198;28;20024;-71
2023/05/31 09:55:55;;;;;;;10.82;5.88;;;;;;;29.06;83.23;102388.91;5281795;28;20019;-71
2023/05/31 09:58:30;;;;;;;12.45;6.07;;;;;;;28.76;82.63;102378.66;5275557;28;20060;-69
2023/05/31 10:01:03;;;;;;;10.57;5.75;;;;;;;29.27;81.28;102378.53;5283749;28;20032;-72
2023/05/31 10:03:35;;;;;;;10.00;6.28;;;;;;;29.45;81.51;102384.00;5283186;28;20503;-72
2023/05/31 10:06:07;;;;;;;9.27;4.95;;;;;;;29.77;80.49;102392.06;5282609;28;20040;-72
2023/05/31 10:08:38;;;;;;;9.05;5.78;;;;;;;29.63;74.44;102371.28;5287740;28;20031;-72
2023/05/31 10:11:13;;;;;;;7.68;5.07;;;;;;;30.07;74.45;102378.25;5288401;28;20413;-71
2023/05/31 10:13:46;;;;;;;8.57;5.03;;;;;;;29.95;72.24;102380.97;5286123;28;20125;-72
2023/05/31 10:16:21;;;;;;;8.48;4.90;;;;;;;30.08;72.59;102377.16;5287080;28;20029;-71
2023/05/31 10:18:56;;;;;;;11.68;4.80;;;;;;;30.29;72.62;102386.75;5291621;28;20047;-72
2023/05/31 10:21:28;;;;;;;;;;;;;;;31.22;76.18;102367.66;5288682;28;20032;-72
2023/05/31 10:24:07;;;;;;;7.90;4.97;;;;;;;30.64;71.03;102374.13;5284753;28;19922;-71
2023/05/31 10:26:49;;;;;;;13.20;4.35;;;;;;;31.03;71.16;102368.94;5287692;28;20548;-69
2023/05/31 10:29:26;;;;;;;5.38;3.92;;;;;;;30.78;66.33;102364.50;5281633;28;20027;-71
2023/05/31 10:32:06;;;;;;;7.35;3.42;;;;;;;31.31;67.44;102359.00;5278837;28;20019;-72
2023/05/31 10:34:37;;;;;;;8.77;3.70;;;;;;;31.15;62.90;102347.69;5280294;28;20024;-71
2023/05/31 10:37:10;;;;;;;6.53;3.25;;;;;;;31.30;61.43;102338.91;5288303;28;20500;-72
2023/05/31 10:40:12;;;;;;;8.38;4.10;;;;;;;31.63;63.30;102349.19;5286603;28;20039;-72
2023/05/31 10:42:52;;;;;;;10.18;3.85;;;;;;;31.38;59.76;102341.25;5286828;28;21390;-70
2023/05/31 10:45:35;;;;;;;6.80;3.15;;;;;;;31.63;60.60;102329.06;5289023;28;20088;-70
2023/05/31 10:48:21;;;;;;;7.88;3.45;;;;;;;31.62;60.09;102327.38;5278682;28;20032;-70
2023/05/31 10:50:57;;;;;;;10.20;3.00;;;;;;;32.04;59.49;102326.97;5287165;28;20036;-70
2023/05/31 10:53:30;;;;;;;7.38;3.05;;;;;;;31.90;55.48;102323.72;5287576;28;20051;-70
2023/05/31 10:56:04;;;;;;;5.72;2.83;;;;;;;31.96;52.98;102325.50;5289331;28;20111;-70
2023/05/31 10:58:43;;;;;;;5.75;2.83;;;;;;;32.22;53.48;102320.38;5287069;28;20039;-70
2023/05/31 11:01:20;;;;;;;6.65;2.70;;;;;;;32.43;54.63;102335.31;5279467;28;20550;-71
2023/05/31 11:03:53;;;;;;;8.18;3.28;;;;;;;32.31;51.94;102323.53;5283187;28;20031;-70
2023/05/31 11:06:36;;;;;;;7.93;3.05;;;;;;;32.75;52.24;102318.94;5280725;28;20020;-70
2023/05/31 11:09:14;;;;;;;6.63;3.30;;;;;;;32.46;51.51;102323.78;5286520;28;20105;-71
2023/05/31 11:11:49;;;;;;;8.23;3.35;;;;;;;32.44;50.85;102316.84;5288155;28;20020;-71
2023/05/31 11:14:29;;;;;;;7.35;6.63;;;;;;;31.77;48.73;102305.59;5289927;28;20413;-71
2023/05/31 11:17:04;;;;;;;7.25;2.72;;;;;;;31.90;50.60;102311.84;5288976;28;20028;-71
2023/05/31 11:19:36;;;;;;;7.55;3.28;;;;;;;31.75;49.24;102306.91;5285770;28;20389;-71
2023/05/31 11:22:08;;;;;;;6.63;2.92;;;;;;;31.82;49.45;102311.19;5280110;28;20032;-71
2023/05/31 11:24:54;;;;;;;6.72;2.97;;;;;;;32.14;51.57;102318.91;5283451;28;20070;-71
2023/05/31 11:27:48;;;;;;;6.22;2.92;;;;;;;32.51;51.65;102306.44;5287191;28;20089;-71
2023/05/31 11:30:19;;;;;;;5.93;2.83;;;;;;;32.26;47.93;102305.00;5284032;28;20194;-71
2023/05/31 11:32:51;;;;;;;7.75;3.15;;;;;;;32.43;46.59;102310.47;5288375;28;20741;-71
2023/05/31 11:35:23;;;;;;;9.18;3.13;;;;;;;32.46;48.25;102307.19;5288911;28;20070;-70
2023/05/31 11:38:03;;;;;;;7.28;2.72;;;;;;;32.65;48.10;102306.94;5285518;28;20032;-71